Portada
METAR-TAF:

METAR-TAF

Aeroports :

Yezd, Iran

latitud: 31-54N, longitud: 054-24E, altitud: 1238 m

Observació

L'informe es va fer fa 27 minuts, a les 21:00 UTC
Vent 6 kt del Sud
Temperatura 20°C
Humitat 32%
Pressió 1016 hPa
Visibilitat 10 km o més
sense núvols per sota de 1500 mi sense presència de cumulonimbus.

METAR: OIYY 052100Z 18006KT CAVOK 20/03 Q1016

Hora: 01:57 (21:27 UTC)

Pronòstic

L'informe es va fer fa 1 hora i 17 minuts, a les 20:10 UTC
Pronòstic vàlid del 05 a les 21 UTC al 06 a les 06 UTC
Vent 8 kt del Oest
Visibilitat: 7000 m
Núvols disperses a una alçada de 3500 ft
Núvols disperses a una alçada de 10000 ft
Temporalment
l' 06 a les 08 UTC al 06 a les 09 UTC
Escasses núvols a una alçada de 3000 ft, Cumulonimbus.
Núvols disperses a una alçada de 3500 ft

TAF: OIYY 052010Z 0521/0606 28008KT 7000 SCT035 SCT100 TEMPO 0608/0609 FEW030CB SCT035

Observacions i pronòstics meteorològics de més de 4000 aeroports (METAR i TAF).

Les estacions disponibles són els punts grocs i vermells al mapa.

Posi el ratolí al punt desitjat per veure el nom de l'estació.

Feu clic per veure les observacions i els pronòstics meteorològics.

Per canviar el mapa: feu clic els botons verds amb una creu de color negre per apropar; al botó verd amb un guió per allunyar la imatge; o en les fletxes verdes per a mapes adjacents.


METAR-TAF: